sensor_id;sensor_type;location;lat;lon;timestamp;P1;durP1;ratioP1;P2;durP2;ratioP2
48327;SDS011;34136;51.022;7.082;2022-09-20T00:02:19;6.03;;;2.00;;
48327;SDS011;34136;51.022;7.082;2022-09-20T00:05:05;5.32;;;2.30;;
48327;SDS011;34136;51.022;7.082;2022-09-20T00:07:52;8.10;;;2.55;;
48327;SDS011;34136;51.022;7.082;2022-09-20T00:10:39;5.15;;;2.28;;
48327;SDS011;34136;51.022;7.082;2022-09-20T00:13:25;4.32;;;2.28;;
48327;SDS011;34136;51.022;7.082;2022-09-20T00:16:12;6.70;;;2.47;;
48327;SDS011;34136;51.022;7.082;2022-09-20T00:19:01;9.18;;;2.80;;
48327;SDS011;34136;51.022;7.082;2022-09-20T00:21:49;9.40;;;2.58;;
48327;SDS011;34136;51.022;7.082;2022-09-20T00:24:35;6.72;;;2.22;;
48327;SDS011;34136;51.022;7.082;2022-09-20T00:27:21;6.15;;;2.30;;
48327;SDS011;34136;51.022;7.082;2022-09-20T00:30:07;6.97;;;2.50;;
48327;SDS011;34136;51.022;7.082;2022-09-20T00:32:54;3.72;;;2.20;;
48327;SDS011;34136;51.022;7.082;2022-09-20T00:35:42;7.22;;;2.15;;
48327;SDS011;34136;51.022;7.082;2022-09-20T00:38:29;8.38;;;2.88;;
48327;SDS011;34136;51.022;7.082;2022-09-20T00:41:15;7.95;;;2.47;;
48327;SDS011;34136;51.022;7.082;2022-09-20T00:44:35;8.48;;;2.70;;
48327;SDS011;34136;51.022;7.082;2022-09-20T00:47:34;6.00;;;2.15;;
48327;SDS011;34136;51.022;7.082;2022-09-20T00:53:33;7.45;;;2.65;;
48327;SDS011;34136;51.022;7.082;2022-09-20T00:56:25;5.65;;;2.42;;
48327;SDS011;34136;51.022;7.082;2022-09-20T00:59:17;7.05;;;2.25;;
48327;SDS011;34136;51.022;7.082;2022-09-20T01:02:28;6.13;;;1.90;;
48327;SDS011;34136;51.022;7.082;2022-09-20T01:05:15;5.55;;;1.98;;
48327;SDS011;34136;51.022;7.082;2022-09-20T01:08:03;3.88;;;2.13;;
48327;SDS011;34136;51.022;7.082;2022-09-20T01:10:51;8.23;;;2.30;;
48327;SDS011;34136;51.022;7.082;2022-09-20T01:13:38;7.55;;;2.47;;
48327;SDS011;34136;51.022;7.082;2022-09-20T01:16:24;7.03;;;2.22;;
48327;SDS011;34136;51.022;7.082;2022-09-20T01:19:15;5.78;;;2.25;;
48327;SDS011;34136;51.022;7.082;2022-09-20T01:22:26;7.10;;;2.10;;
48327;SDS011;34136;51.022;7.082;2022-09-20T01:28:19;7.32;;;1.83;;
48327;SDS011;34136;51.022;7.082;2022-09-20T01:34:10;6.03;;;2.00;;
48327;SDS011;34136;51.022;7.082;2022-09-20T01:37:21;3.67;;;1.75;;
48327;SDS011;34136;51.022;7.082;2022-09-20T01:40:11;5.00;;;1.95;;
48327;SDS011;34136;51.022;7.082;2022-09-20T01:43:20;6.22;;;1.75;;
48327;SDS011;34136;51.022;7.082;2022-09-20T01:49:35;5.50;;;2.25;;
48327;SDS011;34136;51.022;7.082;2022-09-20T01:55:57;9.35;;;2.47;;
48327;SDS011;34136;51.022;7.082;2022-09-20T01:59:22;7.90;;;1.95;;
48327;SDS011;34136;51.022;7.082;2022-09-20T02:12:31;7.72;;;2.33;;
48327;SDS011;34136;51.022;7.082;2022-09-20T02:22:22;5.32;;;1.70;;
48327;SDS011;34136;51.022;7.082;2022-09-20T02:44:42;4.28;;;1.95;;
48327;SDS011;34136;51.022;7.082;2022-09-20T02:47:38;6.25;;;2.20;;
48327;SDS011;34136;51.022;7.082;2022-09-20T02:59:45;5.57;;;2.50;;
48327;SDS011;34136;51.022;7.082;2022-09-20T03:05:51;5.68;;;2.33;;
48327;SDS011;34136;51.022;7.082;2022-09-20T03:12:18;5.82;;;1.90;;
48327;SDS011;34136;51.022;7.082;2022-09-20T03:21:45;7.28;;;1.92;;
48327;SDS011;34136;51.022;7.082;2022-09-20T03:27:29;7.05;;;2.30;;
48327;SDS011;34136;51.022;7.082;2022-09-20T03:37:08;5.47;;;2.40;;
48327;SDS011;34136;51.022;7.082;2022-09-20T03:46:34;7.53;;;2.55;;
48327;SDS011;34136;51.022;7.082;2022-09-20T04:05:09;6.15;;;2.67;;
48327;SDS011;34136;51.022;7.082;2022-09-20T04:08:08;5.93;;;2.35;;
48327;SDS011;34136;51.022;7.082;2022-09-20T04:14:44;7.93;;;2.60;;
48327;SDS011;34136;51.022;7.082;2022-09-20T04:17:54;7.45;;;2.03;;
48327;SDS011;34136;51.022;7.082;2022-09-20T04:20:46;6.00;;;2.20;;
48327;SDS011;34136;51.022;7.082;2022-09-20T04:26:46;4.75;;;2.13;;
48327;SDS011;34136;51.022;7.082;2022-09-20T04:32:47;9.50;;;2.60;;
48327;SDS011;34136;51.022;7.082;2022-09-20T04:38:34;4.80;;;2.33;;
48327;SDS011;34136;51.022;7.082;2022-09-20T04:41:31;6.60;;;2.47;;
48327;SDS011;34136;51.022;7.082;2022-09-20T05:00:17;7.60;;;3.00;;
48327;SDS011;34136;51.022;7.082;2022-09-20T05:30:29;8.52;;;2.88;;
48327;SDS011;34136;51.022;7.082;2022-09-20T05:36:55;7.15;;;2.45;;
48327;SDS011;34136;51.022;7.082;2022-09-20T05:39:53;5.28;;;2.63;;
48327;SDS011;34136;51.022;7.082;2022-09-20T05:42:51;7.05;;;2.70;;
48327;SDS011;34136;51.022;7.082;2022-09-20T05:46:02;8.52;;;3.13;;
48327;SDS011;34136;51.022;7.082;2022-09-20T05:58:10;7.60;;;3.00;;
48327;SDS011;34136;51.022;7.082;2022-09-20T06:04:25;7.32;;;2.83;;
48327;SDS011;34136;51.022;7.082;2022-09-20T06:16:32;8.25;;;2.95;;
48327;SDS011;34136;51.022;7.082;2022-09-20T06:22:39;8.82;;;2.90;;
48327;SDS011;34136;51.022;7.082;2022-09-20T06:25:43;5.00;;;3.00;;
48327;SDS011;34136;51.022;7.082;2022-09-20T06:31:42;11.77;;;3.60;;
48327;SDS011;34136;51.022;7.082;2022-09-20T06:34:29;6.15;;;3.33;;
48327;SDS011;34136;51.022;7.082;2022-09-20T06:37:23;7.55;;;3.40;;
48327;SDS011;34136;51.022;7.082;2022-09-20T06:40:41;6.45;;;3.38;;
48327;SDS011;34136;51.022;7.082;2022-09-20T06:43:36;7.32;;;3.55;;
48327;SDS011;34136;51.022;7.082;2022-09-20T06:46:26;8.45;;;3.58;;
48327;SDS011;34136;51.022;7.082;2022-09-20T06:49:17;8.77;;;3.45;;
48327;SDS011;34136;51.022;7.082;2022-09-20T06:52:04;7.88;;;4.00;;
48327;SDS011;34136;51.022;7.082;2022-09-20T06:54:52;13.80;;;4.80;;
48327;SDS011;34136;51.022;7.082;2022-09-20T06:57:40;9.63;;;4.90;;
48327;SDS011;34136;51.022;7.082;2022-09-20T07:00:26;11.10;;;5.38;;
48327;SDS011;34136;51.022;7.082;2022-09-20T07:03:13;13.77;;;5.97;;
48327;SDS011;34136;51.022;7.082;2022-09-20T07:06:00;13.65;;;6.40;;
48327;SDS011;34136;51.022;7.082;2022-09-20T07:08:47;10.68;;;5.80;;
48327;SDS011;34136;51.022;7.082;2022-09-20T07:11:33;12.23;;;5.85;;
48327;SDS011;34136;51.022;7.082;2022-09-20T07:14:21;13.63;;;6.05;;
48327;SDS011;34136;51.022;7.082;2022-09-20T07:17:07;18.13;;;6.47;;
48327;SDS011;34136;51.022;7.082;2022-09-20T07:20:16;14.05;;;6.70;;
48327;SDS011;34136;51.022;7.082;2022-09-20T07:23:02;11.20;;;6.35;;
48327;SDS011;34136;51.022;7.082;2022-09-20T07:25:49;15.68;;;7.60;;
48327;SDS011;34136;51.022;7.082;2022-09-20T07:28:35;14.50;;;7.47;;
48327;SDS011;34136;51.022;7.082;2022-09-20T07:31:22;17.13;;;7.38;;
48327;SDS011;34136;51.022;7.082;2022-09-20T07:34:10;13.90;;;7.28;;
48327;SDS011;34136;51.022;7.082;2022-09-20T07:36:57;18.73;;;8.48;;
48327;SDS011;34136;51.022;7.082;2022-09-20T07:39:44;13.23;;;7.18;;
48327;SDS011;34136;51.022;7.082;2022-09-20T07:42:30;11.60;;;7.05;;
48327;SDS011;34136;51.022;7.082;2022-09-20T07:45:17;18.88;;;7.30;;
48327;SDS011;34136;51.022;7.082;2022-09-20T07:48:05;20.38;;;7.97;;
48327;SDS011;34136;51.022;7.082;2022-09-20T07:50:52;20.50;;;8.68;;
48327;SDS011;34136;51.022;7.082;2022-09-20T07:53:41;14.05;;;6.70;;
48327;SDS011;34136;51.022;7.082;2022-09-20T07:56:27;9.57;;;6.68;;
48327;SDS011;34136;51.022;7.082;2022-09-20T07:59:14;16.35;;;7.95;;
48327;SDS011;34136;51.022;7.082;2022-09-20T08:02:01;18.42;;;7.47;;
48327;SDS011;34136;51.022;7.082;2022-09-20T08:04:47;16.73;;;6.43;;
48327;SDS011;34136;51.022;7.082;2022-09-20T08:07:33;13.45;;;5.68;;
48327;SDS011;34136;51.022;7.082;2022-09-20T08:10:20;19.73;;;5.90;;
48327;SDS011;34136;51.022;7.082;2022-09-20T08:13:07;12.98;;;5.88;;
48327;SDS011;34136;51.022;7.082;2022-09-20T08:16:15;17.15;;;5.55;;
48327;SDS011;34136;51.022;7.082;2022-09-20T08:19:04;12.07;;;4.93;;
48327;SDS011;34136;51.022;7.082;2022-09-20T08:21:51;14.93;;;4.93;;
48327;SDS011;34136;51.022;7.082;2022-09-20T08:24:37;13.00;;;5.05;;
48327;SDS011;34136;51.022;7.082;2022-09-20T08:27:36;11.40;;;4.70;;
48327;SDS011;34136;51.022;7.082;2022-09-20T08:31:09;15.25;;;5.65;;
48327;SDS011;34136;51.022;7.082;2022-09-20T08:33:57;10.95;;;4.32;;
48327;SDS011;34136;51.022;7.082;2022-09-20T08:36:44;12.18;;;4.38;;
48327;SDS011;34136;51.022;7.082;2022-09-20T08:39:31;13.27;;;4.35;;
48327;SDS011;34136;51.022;7.082;2022-09-20T08:42:27;12.52;;;4.13;;
48327;SDS011;34136;51.022;7.082;2022-09-20T08:45:22;12.90;;;3.88;;
48327;SDS011;34136;51.022;7.082;2022-09-20T08:48:14;10.05;;;3.75;;
48327;SDS011;34136;51.022;7.082;2022-09-20T08:51:02;9.90;;;3.70;;
48327;SDS011;34136;51.022;7.082;2022-09-20T08:53:51;13.68;;;3.70;;
48327;SDS011;34136;51.022;7.082;2022-09-20T08:56:39;10.68;;;3.25;;
48327;SDS011;34136;51.022;7.082;2022-09-20T08:59:26;13.88;;;3.53;;
48327;SDS011;34136;51.022;7.082;2022-09-20T09:02:17;13.82;;;2.97;;
48327;SDS011;34136;51.022;7.082;2022-09-20T09:05:26;11.90;;;3.17;;
48327;SDS011;34136;51.022;7.082;2022-09-20T09:08:35;8.40;;;2.90;;
48327;SDS011;34136;51.022;7.082;2022-09-20T09:11:23;10.63;;;3.03;;
48327;SDS011;34136;51.022;7.082;2022-09-20T09:14:21;9.45;;;2.60;;
48327;SDS011;34136;51.022;7.082;2022-09-20T09:17:17;11.38;;;3.00;;
48327;SDS011;34136;51.022;7.082;2022-09-20T09:23:00;9.35;;;2.30;;
48327;SDS011;34136;51.022;7.082;2022-09-20T09:26:39;7.35;;;2.00;;
48327;SDS011;34136;51.022;7.082;2022-09-20T09:33:55;9.82;;;2.28;;
48327;SDS011;34136;51.022;7.082;2022-09-20T09:36:46;5.30;;;1.63;;
48327;SDS011;34136;51.022;7.082;2022-09-20T09:43:09;11.57;;;2.17;;
48327;SDS011;34136;51.022;7.082;2022-09-20T09:50:30;11.98;;;2.42;;
48327;SDS011;34136;51.022;7.082;2022-09-20T09:53:22;8.95;;;2.20;;
48327;SDS011;34136;51.022;7.082;2022-09-20T10:10:25;9.00;;;2.03;;
48327;SDS011;34136;51.022;7.082;2022-09-20T10:22:47;10.75;;;2.22;;
48327;SDS011;34136;51.022;7.082;2022-09-20T10:26:00;13.35;;;2.70;;
48327;SDS011;34136;51.022;7.082;2022-09-20T10:35:43;7.90;;;2.17;;
48327;SDS011;34136;51.022;7.082;2022-09-20T10:44:38;11.15;;;2.65;;
48327;SDS011;34136;51.022;7.082;2022-09-20T10:51:10;14.75;;;2.20;;
48327;SDS011;34136;51.022;7.082;2022-09-20T10:57:45;8.60;;;2.30;;
48327;SDS011;34136;51.022;7.082;2022-09-20T11:00:58;10.55;;;2.58;;
48327;SDS011;34136;51.022;7.082;2022-09-20T11:03:52;10.68;;;2.42;;
48327;SDS011;34136;51.022;7.082;2022-09-20T11:09:56;19.38;;;2.80;;
48327;SDS011;34136;51.022;7.082;2022-09-20T11:12:54;9.57;;;2.28;;
48327;SDS011;34136;51.022;7.082;2022-09-20T11:21:58;7.10;;;2.10;;
48327;SDS011;34136;51.022;7.082;2022-09-20T11:31:04;10.52;;;1.95;;
48327;SDS011;34136;51.022;7.082;2022-09-20T11:34:00;13.57;;;2.72;;
48327;SDS011;34136;51.022;7.082;2022-09-20T11:37:03;9.35;;;2.28;;
48327;SDS011;34136;51.022;7.082;2022-09-20T11:39:54;11.82;;;2.40;;
48327;SDS011;34136;51.022;7.082;2022-09-20T11:42:41;9.48;;;1.88;;
48327;SDS011;34136;51.022;7.082;2022-09-20T11:45:28;10.07;;;2.25;;
48327;SDS011;34136;51.022;7.082;2022-09-20T11:48:17;7.72;;;1.98;;
48327;SDS011;34136;51.022;7.082;2022-09-20T11:57:19;8.30;;;1.45;;
48327;SDS011;34136;51.022;7.082;2022-09-20T12:00:06;9.23;;;1.85;;
48327;SDS011;34136;51.022;7.082;2022-09-20T12:02:59;8.38;;;1.77;;
48327;SDS011;34136;51.022;7.082;2022-09-20T12:09:31;9.18;;;1.95;;
48327;SDS011;34136;51.022;7.082;2022-09-20T12:12:30;8.25;;;1.50;;
48327;SDS011;34136;51.022;7.082;2022-09-20T12:15:34;12.50;;;1.98;;
48327;SDS011;34136;51.022;7.082;2022-09-20T12:18:45;6.18;;;1.30;;
48327;SDS011;34136;51.022;7.082;2022-09-20T12:34:35;9.38;;;1.95;;
48327;SDS011;34136;51.022;7.082;2022-09-20T12:37:22;6.55;;;1.80;;
48327;SDS011;34136;51.022;7.082;2022-09-20T12:40:13;6.68;;;1.65;;
48327;SDS011;34136;51.022;7.082;2022-09-20T12:43:00;8.35;;;1.92;;
48327;SDS011;34136;51.022;7.082;2022-09-20T12:45:51;5.22;;;1.40;;
48327;SDS011;34136;51.022;7.082;2022-09-20T12:48:39;7.50;;;1.75;;
48327;SDS011;34136;51.022;7.082;2022-09-20T12:51:32;7.78;;;1.60;;
48327;SDS011;34136;51.022;7.082;2022-09-20T12:54:21;5.80;;;1.48;;
48327;SDS011;34136;51.022;7.082;2022-09-20T12:57:15;7.70;;;1.40;;
48327;SDS011;34136;51.022;7.082;2022-09-20T13:00:27;4.65;;;0.90;;
48327;SDS011;34136;51.022;7.082;2022-09-20T13:10:27;5.80;;;1.10;;
48327;SDS011;34136;51.022;7.082;2022-09-20T13:13:23;5.85;;;1.00;;
48327;SDS011;34136;51.022;7.082;2022-09-20T13:20:05;4.78;;;0.70;;
48327;SDS011;34136;51.022;7.082;2022-09-20T13:23:05;3.38;;;1.00;;
48327;SDS011;34136;51.022;7.082;2022-09-20T13:25:57;6.82;;;1.40;;
48327;SDS011;34136;51.022;7.082;2022-09-20T13:28:54;4.82;;;1.50;;
48327;SDS011;34136;51.022;7.082;2022-09-20T13:35:51;5.72;;;1.02;;
48327;SDS011;34136;51.022;7.082;2022-09-20T13:39:43;3.50;;;0.90;;
48327;SDS011;34136;51.022;7.082;2022-09-20T13:42:39;2.72;;;0.70;;
48327;SDS011;34136;51.022;7.082;2022-09-20T13:45:35;4.80;;;1.33;;
48327;SDS011;34136;51.022;7.082;2022-09-20T13:48:26;3.47;;;1.17;;
48327;SDS011;34136;51.022;7.082;2022-09-20T13:51:17;2.08;;;0.90;;
48327;SDS011;34136;51.022;7.082;2022-09-20T13:57:19;3.45;;;1.08;;
48327;SDS011;34136;51.022;7.082;2022-09-20T14:00:31;3.65;;;0.80;;
48327;SDS011;34136;51.022;7.082;2022-09-20T14:03:44;6.28;;;1.20;;
48327;SDS011;34136;51.022;7.082;2022-09-20T14:06:31;5.93;;;1.15;;
48327;SDS011;34136;51.022;7.082;2022-09-20T14:12:12;4.15;;;1.02;;
48327;SDS011;34136;51.022;7.082;2022-09-20T14:15:08;7.75;;;1.15;;
48327;SDS011;34136;51.022;7.082;2022-09-20T14:17:55;7.82;;;1.45;;
48327;SDS011;34136;51.022;7.082;2022-09-20T14:20:42;4.82;;;1.00;;
48327;SDS011;34136;51.022;7.082;2022-09-20T14:23:31;3.72;;;0.88;;
48327;SDS011;34136;51.022;7.082;2022-09-20T14:26:22;6.80;;;1.20;;
48327;SDS011;34136;51.022;7.082;2022-09-20T14:35:36;4.18;;;1.05;;
48327;SDS011;34136;51.022;7.082;2022-09-20T14:38:30;3.53;;;0.90;;
48327;SDS011;34136;51.022;7.082;2022-09-20T14:41:23;5.65;;;1.42;;
48327;SDS011;34136;51.022;7.082;2022-09-20T14:44:25;3.08;;;0.90;;
48327;SDS011;34136;51.022;7.082;2022-09-20T14:47:25;4.45;;;1.02;;
48327;SDS011;34136;51.022;7.082;2022-09-20T14:50:24;3.92;;;1.13;;
48327;SDS011;34136;51.022;7.082;2022-09-20T14:56:11;4.85;;;0.98;;
48327;SDS011;34136;51.022;7.082;2022-09-20T15:04:54;3.85;;;0.90;;
48327;SDS011;34136;51.022;7.082;2022-09-20T15:07:43;4.20;;;1.13;;
48327;SDS011;34136;51.022;7.082;2022-09-20T15:10:29;4.53;;;1.30;;
48327;SDS011;34136;51.022;7.082;2022-09-20T15:13:16;6.13;;;1.30;;
48327;SDS011;34136;51.022;7.082;2022-09-20T15:16:02;7.45;;;1.52;;
48327;SDS011;34136;51.022;7.082;2022-09-20T15:18:48;6.80;;;1.17;;
48327;SDS011;34136;51.022;7.082;2022-09-20T15:21:34;3.28;;;1.10;;
48327;SDS011;34136;51.022;7.082;2022-09-20T15:24:21;6.40;;;1.10;;
48327;SDS011;34136;51.022;7.082;2022-09-20T15:27:08;5.18;;;1.10;;
48327;SDS011;34136;51.022;7.082;2022-09-20T15:29:56;2.92;;;1.33;;
48327;SDS011;34136;51.022;7.082;2022-09-20T15:32:43;4.60;;;1.25;;
48327;SDS011;34136;51.022;7.082;2022-09-20T15:35:29;7.30;;;1.30;;
48327;SDS011;34136;51.022;7.082;2022-09-20T15:38:16;4.70;;;1.08;;
48327;SDS011;34136;51.022;7.082;2022-09-20T15:41:03;3.53;;;0.90;;
48327;SDS011;34136;51.022;7.082;2022-09-20T15:43:49;4.47;;;1.20;;
48327;SDS011;34136;51.022;7.082;2022-09-20T15:46:35;7.50;;;1.40;;
48327;SDS011;34136;51.022;7.082;2022-09-20T15:49:22;4.80;;;1.25;;
48327;SDS011;34136;51.022;7.082;2022-09-20T15:52:08;7.68;;;1.33;;
48327;SDS011;34136;51.022;7.082;2022-09-20T15:54:54;7.53;;;1.50;;
48327;SDS011;34136;51.022;7.082;2022-09-20T15:57:40;4.43;;;1.13;;
48327;SDS011;34136;51.022;7.082;2022-09-20T16:00:27;5.35;;;1.10;;
48327;SDS011;34136;51.022;7.082;2022-09-20T16:03:13;6.00;;;1.10;;
48327;SDS011;34136;51.022;7.082;2022-09-20T16:06:21;9.43;;;1.48;;
48327;SDS011;34136;51.022;7.082;2022-09-20T16:09:09;3.83;;;1.20;;
48327;SDS011;34136;51.022;7.082;2022-09-20T16:11:55;5.10;;;1.38;;
48327;SDS011;34136;51.022;7.082;2022-09-20T16:14:42;4.78;;;1.20;;
48327;SDS011;34136;51.022;7.082;2022-09-20T16:17:28;5.10;;;1.40;;
48327;SDS011;34136;51.022;7.082;2022-09-20T16:20:14;4.80;;;1.20;;
48327;SDS011;34136;51.022;7.082;2022-09-20T16:23:02;5.47;;;1.35;;
48327;SDS011;34136;51.022;7.082;2022-09-20T16:25:48;5.30;;;1.35;;
48327;SDS011;34136;51.022;7.082;2022-09-20T16:28:34;3.00;;;1.13;;
48327;SDS011;34136;51.022;7.082;2022-09-20T16:34:26;5.05;;;1.25;;
48327;SDS011;34136;51.022;7.082;2022-09-20T16:37:14;7.65;;;2.22;;
48327;SDS011;34136;51.022;7.082;2022-09-20T16:40:00;6.22;;;1.77;;
48327;SDS011;34136;51.022;7.082;2022-09-20T16:42:47;4.05;;;1.58;;
48327;SDS011;34136;51.022;7.082;2022-09-20T16:45:33;7.05;;;2.05;;
48327;SDS011;34136;51.022;7.082;2022-09-20T16:48:20;5.72;;;1.90;;
48327;SDS011;34136;51.022;7.082;2022-09-20T16:51:06;5.78;;;1.73;;
48327;SDS011;34136;51.022;7.082;2022-09-20T16:53:53;5.60;;;1.73;;
48327;SDS011;34136;51.022;7.082;2022-09-20T16:56:40;4.97;;;1.70;;
48327;SDS011;34136;51.022;7.082;2022-09-20T16:59:28;9.07;;;2.75;;
48327;SDS011;34136;51.022;7.082;2022-09-20T17:02:14;18.50;;;12.73;;
48327;SDS011;34136;51.022;7.082;2022-09-20T17:05:00;5.55;;;2.13;;
48327;SDS011;34136;51.022;7.082;2022-09-20T17:07:46;10.30;;;5.93;;
48327;SDS011;34136;51.022;7.082;2022-09-20T17:10:33;7.43;;;3.53;;
48327;SDS011;34136;51.022;7.082;2022-09-20T17:13:19;7.43;;;3.05;;
48327;SDS011;34136;51.022;7.082;2022-09-20T17:16:09;7.38;;;2.08;;
48327;SDS011;34136;51.022;7.082;2022-09-20T17:18:58;4.50;;;1.52;;
48327;SDS011;34136;51.022;7.082;2022-09-20T17:21:47;6.15;;;2.13;;
48327;SDS011;34136;51.022;7.082;2022-09-20T17:24:34;8.27;;;2.70;;
48327;SDS011;34136;51.022;7.082;2022-09-20T17:27:20;6.82;;;2.40;;
48327;SDS011;34136;51.022;7.082;2022-09-20T17:30:06;7.38;;;2.55;;
48327;SDS011;34136;51.022;7.082;2022-09-20T17:32:53;8.57;;;4.80;;
48327;SDS011;34136;51.022;7.082;2022-09-20T17:35:48;7.63;;;3.70;;
48327;SDS011;34136;51.022;7.082;2022-09-20T17:38:35;4.32;;;1.88;;
48327;SDS011;34136;51.022;7.082;2022-09-20T17:41:22;9.45;;;2.22;;
48327;SDS011;34136;51.022;7.082;2022-09-20T17:44:09;6.57;;;2.05;;
48327;SDS011;34136;51.022;7.082;2022-09-20T17:46:56;5.60;;;1.98;;
48327;SDS011;34136;51.022;7.082;2022-09-20T17:49:42;5.15;;;1.63;;
48327;SDS011;34136;51.022;7.082;2022-09-20T17:52:28;6.43;;;1.95;;
48327;SDS011;34136;51.022;7.082;2022-09-20T17:55:14;7.15;;;2.00;;
48327;SDS011;34136;51.022;7.082;2022-09-20T17:58:00;7.10;;;1.77;;
48327;SDS011;34136;51.022;7.082;2022-09-20T18:00:46;6.50;;;2.20;;
48327;SDS011;34136;51.022;7.082;2022-09-20T18:03:33;12.25;;;3.65;;
48327;SDS011;34136;51.022;7.082;2022-09-20T18:06:23;9.02;;;3.20;;
48327;SDS011;34136;51.022;7.082;2022-09-20T18:09:13;7.70;;;3.22;;
48327;SDS011;34136;51.022;7.082;2022-09-20T18:12:00;7.00;;;2.83;;
48327;SDS011;34136;51.022;7.082;2022-09-20T18:14:47;7.50;;;2.72;;
48327;SDS011;34136;51.022;7.082;2022-09-20T18:17:33;5.85;;;2.67;;
48327;SDS011;34136;51.022;7.082;2022-09-20T18:20:19;8.13;;;3.15;;
48327;SDS011;34136;51.022;7.082;2022-09-20T18:23:06;7.45;;;2.97;;
48327;SDS011;34136;51.022;7.082;2022-09-20T18:25:52;6.80;;;2.78;;
48327;SDS011;34136;51.022;7.082;2022-09-20T18:28:38;8.95;;;2.70;;
48327;SDS011;34136;51.022;7.082;2022-09-20T18:31:26;7.63;;;2.70;;
48327;SDS011;34136;51.022;7.082;2022-09-20T18:34:24;8.05;;;2.78;;
48327;SDS011;34136;51.022;7.082;2022-09-20T18:37:12;13.05;;;4.30;;
48327;SDS011;34136;51.022;7.082;2022-09-20T18:39:58;9.88;;;4.18;;
48327;SDS011;34136;51.022;7.082;2022-09-20T18:42:45;8.20;;;3.42;;
48327;SDS011;34136;51.022;7.082;2022-09-20T18:45:31;8.95;;;2.78;;
48327;SDS011;34136;51.022;7.082;2022-09-20T18:48:17;7.15;;;2.47;;
48327;SDS011;34136;51.022;7.082;2022-09-20T18:51:05;6.80;;;2.63;;
48327;SDS011;34136;51.022;7.082;2022-09-20T18:53:53;10.55;;;4.47;;
48327;SDS011;34136;51.022;7.082;2022-09-20T18:56:40;9.82;;;3.78;;
48327;SDS011;34136;51.022;7.082;2022-09-20T18:59:27;7.70;;;4.15;;
48327;SDS011;34136;51.022;7.082;2022-09-20T19:02:20;8.00;;;3.50;;
48327;SDS011;34136;51.022;7.082;2022-09-20T19:05:33;7.78;;;3.42;;
48327;SDS011;34136;51.022;7.082;2022-09-20T19:08:33;14.45;;;3.80;;
48327;SDS011;34136;51.022;7.082;2022-09-20T19:11:38;6.40;;;3.20;;
48327;SDS011;34136;51.022;7.082;2022-09-20T19:14:31;8.18;;;3.90;;
48327;SDS011;34136;51.022;7.082;2022-09-20T19:20:50;20.42;;;11.13;;
48327;SDS011;34136;51.022;7.082;2022-09-20T19:23:54;24.40;;;12.38;;
48327;SDS011;34136;51.022;7.082;2022-09-20T19:26:43;24.83;;;13.55;;
48327;SDS011;34136;51.022;7.082;2022-09-20T19:29:29;12.70;;;6.88;;
48327;SDS011;34136;51.022;7.082;2022-09-20T19:32:16;15.68;;;5.80;;
48327;SDS011;34136;51.022;7.082;2022-09-20T19:35:03;10.70;;;4.63;;
48327;SDS011;34136;51.022;7.082;2022-09-20T19:38:02;10.18;;;3.13;;
48327;SDS011;34136;51.022;7.082;2022-09-20T19:41:15;7.33;;;2.80;;
48327;SDS011;34136;51.022;7.082;2022-09-20T19:53:28;16.70;;;6.07;;
48327;SDS011;34136;51.022;7.082;2022-09-20T19:56:23;15.93;;;6.88;;
48327;SDS011;34136;51.022;7.082;2022-09-20T19:59:11;16.70;;;6.63;;
48327;SDS011;34136;51.022;7.082;2022-09-20T20:01:58;13.15;;;6.05;;
48327;SDS011;34136;51.022;7.082;2022-09-20T20:04:45;12.95;;;5.20;;
48327;SDS011;34136;51.022;7.082;2022-09-20T20:10:43;10.30;;;3.70;;
48327;SDS011;34136;51.022;7.082;2022-09-20T20:13:50;11.68;;;3.10;;
48327;SDS011;34136;51.022;7.082;2022-09-20T20:19:58;5.53;;;3.10;;
48327;SDS011;34136;51.022;7.082;2022-09-20T20:23:43;9.05;;;3.03;;
48327;SDS011;34136;51.022;7.082;2022-09-20T20:26:36;8.48;;;2.85;;
48327;SDS011;34136;51.022;7.082;2022-09-20T20:32:03;9.43;;;3.53;;
48327;SDS011;34136;51.022;7.082;2022-09-20T20:34:50;8.70;;;3.33;;
48327;SDS011;34136;51.022;7.082;2022-09-20T20:37:36;9.90;;;6.28;;
48327;SDS011;34136;51.022;7.082;2022-09-20T20:40:22;16.20;;;10.07;;
48327;SDS011;34136;51.022;7.082;2022-09-20T20:43:09;16.40;;;8.70;;
48327;SDS011;34136;51.022;7.082;2022-09-20T20:45:55;14.30;;;6.63;;
48327;SDS011;34136;51.022;7.082;2022-09-20T20:48:41;19.80;;;9.73;;
48327;SDS011;34136;51.022;7.082;2022-09-20T20:51:28;22.95;;;12.23;;
48327;SDS011;34136;51.022;7.082;2022-09-20T20:54:14;20.80;;;10.00;;
48327;SDS011;34136;51.022;7.082;2022-09-20T20:57:00;14.55;;;8.15;;
48327;SDS011;34136;51.022;7.082;2022-09-20T20:59:46;23.60;;;14.25;;
48327;SDS011;34136;51.022;7.082;2022-09-20T21:02:33;16.10;;;7.50;;
48327;SDS011;34136;51.022;7.082;2022-09-20T21:05:19;27.15;;;15.73;;
48327;SDS011;34136;51.022;7.082;2022-09-20T21:08:05;15.57;;;10.32;;
48327;SDS011;34136;51.022;7.082;2022-09-20T21:10:52;13.50;;;7.57;;
48327;SDS011;34136;51.022;7.082;2022-09-20T21:13:55;9.13;;;4.47;;
48327;SDS011;34136;51.022;7.082;2022-09-20T21:16:42;11.25;;;3.65;;
48327;SDS011;34136;51.022;7.082;2022-09-20T21:19:28;8.38;;;3.50;;
48327;SDS011;34136;51.022;7.082;2022-09-20T21:22:14;7.32;;;2.53;;
48327;SDS011;34136;51.022;7.082;2022-09-20T21:25:00;8.32;;;2.40;;
48327;SDS011;34136;51.022;7.082;2022-09-20T21:27:47;9.27;;;2.63;;
48327;SDS011;34136;51.022;7.082;2022-09-20T21:30:33;8.73;;;2.47;;
48327;SDS011;34136;51.022;7.082;2022-09-20T21:33:19;8.02;;;3.33;;
48327;SDS011;34136;51.022;7.082;2022-09-20T21:36:06;8.68;;;3.17;;
48327;SDS011;34136;51.022;7.082;2022-09-20T21:38:54;8.65;;;3.17;;
48327;SDS011;34136;51.022;7.082;2022-09-20T21:41:41;7.13;;;2.47;;
48327;SDS011;34136;51.022;7.082;2022-09-20T21:44:27;6.40;;;2.88;;
48327;SDS011;34136;51.022;7.082;2022-09-20T21:47:13;8.40;;;2.67;;
48327;SDS011;34136;51.022;7.082;2022-09-20T21:50:00;7.32;;;2.88;;
48327;SDS011;34136;51.022;7.082;2022-09-20T21:52:46;6.60;;;2.58;;
48327;SDS011;34136;51.022;7.082;2022-09-20T21:55:33;6.47;;;2.42;;
48327;SDS011;34136;51.022;7.082;2022-09-20T21:58:19;7.35;;;2.90;;
48327;SDS011;34136;51.022;7.082;2022-09-20T22:03:59;8.35;;;2.45;;
48327;SDS011;34136;51.022;7.082;2022-09-20T22:06:48;9.50;;;2.50;;
48327;SDS011;34136;51.022;7.082;2022-09-20T22:09:34;6.30;;;2.55;;
48327;SDS011;34136;51.022;7.082;2022-09-20T22:12:21;7.70;;;2.72;;
48327;SDS011;34136;51.022;7.082;2022-09-20T22:15:07;5.55;;;2.67;;
48327;SDS011;34136;51.022;7.082;2022-09-20T22:17:54;8.82;;;2.97;;
48327;SDS011;34136;51.022;7.082;2022-09-20T22:20:40;5.95;;;2.33;;
48327;SDS011;34136;51.022;7.082;2022-09-20T22:23:26;6.60;;;2.67;;
48327;SDS011;34136;51.022;7.082;2022-09-20T22:26:14;6.85;;;2.47;;
48327;SDS011;34136;51.022;7.082;2022-09-20T22:29:01;7.40;;;2.20;;
48327;SDS011;34136;51.022;7.082;2022-09-20T22:31:48;7.82;;;2.28;;
48327;SDS011;34136;51.022;7.082;2022-09-20T22:34:34;8.93;;;2.58;;
48327;SDS011;34136;51.022;7.082;2022-09-20T22:37:20;6.05;;;2.58;;
48327;SDS011;34136;51.022;7.082;2022-09-20T22:40:07;10.02;;;2.90;;
48327;SDS011;34136;51.022;7.082;2022-09-20T22:42:53;9.05;;;2.97;;
48327;SDS011;34136;51.022;7.082;2022-09-20T22:45:40;5.38;;;2.22;;
48327;SDS011;34136;51.022;7.082;2022-09-20T22:48:27;7.15;;;2.50;;
48327;SDS011;34136;51.022;7.082;2022-09-20T22:51:15;6.93;;;2.40;;
48327;SDS011;34136;51.022;7.082;2022-09-20T22:54:04;5.53;;;2.47;;
48327;SDS011;34136;51.022;7.082;2022-09-20T22:56:52;8.13;;;2.35;;
48327;SDS011;34136;51.022;7.082;2022-09-20T22:59:38;9.63;;;2.50;;
48327;SDS011;34136;51.022;7.082;2022-09-20T23:02:24;5.78;;;2.55;;
48327;SDS011;34136;51.022;7.082;2022-09-20T23:05:10;4.68;;;2.33;;